createdAt,value
2024-04-23T00:00:16.546Z,1856.45
2024-04-23T00:01:16.614Z,1857.73
2024-04-23T00:02:16.522Z,1842.46
2024-04-23T00:03:16.571Z,1836.18
2024-04-23T00:04:16.600Z,1824.97
2024-04-23T00:05:16.518Z,1818.80
2024-04-23T00:06:16.515Z,1822.49
2024-04-23T00:07:16.469Z,1812.67
2024-04-23T00:08:16.450Z,1811.45
2024-04-23T00:09:16.436Z,1800.54
2024-04-23T00:10:16.420Z,1786.19
2024-04-23T00:11:16.595Z,1785.00
2024-04-23T00:12:16.422Z,1788.56
2024-04-23T00:13:16.382Z,1787.38
2024-04-23T00:14:16.370Z,1770.90
2024-04-23T00:15:16.361Z,1776.75
2024-04-23T00:16:16.361Z,1763.93
2024-04-23T00:17:16.326Z,1752.44
2024-04-23T00:18:16.403Z,1747.89
2024-04-23T00:19:16.302Z,1743.36
2024-04-23T00:20:16.314Z,1738.85
2024-04-23T00:21:16.291Z,1742.23
2024-04-23T00:22:16.284Z,1724.36
2024-04-23T00:23:16.291Z,1714.47
2024-04-23T00:24:16.238Z,1705.77
2024-04-23T00:25:16.241Z,1723.25
2024-04-23T00:26:16.219Z,1716.66
2024-04-23T00:27:16.207Z,1693.95
2024-04-23T00:28:16.184Z,1701.45
2024-04-23T00:29:16.203Z,1699.31
2024-04-23T00:30:16.190Z,1710.11
2024-04-23T00:31:16.150Z,1687.58
2024-04-23T00:32:16.169Z,1673.93
2024-04-23T00:33:16.233Z,1674.97
2024-04-23T00:34:16.124Z,1680.20
2024-04-23T00:35:16.263Z,1663.57
2024-04-23T00:36:16.085Z,1677.06
2024-04-23T00:37:16.080Z,1681.25
2024-04-23T00:38:16.080Z,1668.73
2024-04-23T00:39:16.166Z,1642.25
2024-04-23T00:40:16.083Z,1647.28
2024-04-23T00:41:16.024Z,1638.25
2024-04-23T00:42:16.011Z,1656.40
2024-04-23T00:43:16.010Z,1649.29
2024-04-23T00:44:15.988Z,1633.27
2024-04-23T00:45:15.982Z,1628.33
2024-04-23T00:46:15.996Z,1628.33
2024-04-23T00:47:15.965Z,1614.65
2024-04-23T00:48:16.007Z,1613.68
2024-04-23T00:49:15.932Z,1597.39
2024-04-23T00:50:15.914Z,1605.01
2024-04-23T00:51:15.907Z,1585.15
2024-04-23T00:52:15.915Z,1577.71
2024-04-23T00:53:15.875Z,1578.64
2024-04-23T00:54:15.882Z,1570.34
2024-04-23T00:55:15.873Z,1561.23
2024-04-23T00:56:15.844Z,1544.20
2024-04-23T00:57:15.853Z,1552.22
2024-04-23T00:58:15.803Z,1535.39
2024-04-23T00:59:15.801Z,1531.02
2024-04-23T01:00:15.779Z,1525.81
2024-04-23T01:01:15.792Z,1514.64
2024-04-23T01:02:15.764Z,1523.22
2024-04-23T01:03:15.878Z,1504.47
2024-04-23T01:04:15.746Z,1496.94
2024-04-23T01:05:15.773Z,1496.11
2024-04-23T01:06:15.708Z,1509.54
2024-04-23T01:07:15.710Z,1504.47
2024-04-23T01:08:15.676Z,1492.79
2024-04-23T01:09:15.710Z,1484.55
2024-04-23T01:10:15.659Z,1486.19
2024-04-23T01:11:15.682Z,1466.74
2024-04-23T01:12:15.671Z,1461.96
2024-04-23T01:13:15.623Z,1457.20
2024-04-23T01:14:15.617Z,1441.59
2024-04-23T01:15:15.633Z,1440.04
2024-04-23T01:16:15.591Z,1435.43
2024-04-23T01:17:15.646Z,1418.78
2024-04-23T01:18:15.625Z,1420.27
2024-04-23T01:19:15.560Z,1415.79
2024-04-23T01:20:15.527Z,1405.43
2024-04-23T01:21:15.547Z,1401.04
2024-04-23T01:22:15.499Z,1403.97
2024-04-23T01:23:15.494Z,1389.46
2024-04-23T01:24:15.480Z,1386.60
2024-04-23T01:25:15.484Z,1383.74
2024-04-23T01:26:15.451Z,1372.45
2024-04-23T01:27:15.467Z,1361.33
2024-04-23T01:28:15.460Z,1357.21
2024-04-23T01:29:15.414Z,1368.26
2024-04-23T01:30:15.424Z,1353.12
2024-04-23T01:31:15.403Z,1354.48
2024-04-23T01:32:15.409Z,1346.35
2024-04-23T01:33:15.428Z,1342.31
2024-04-23T01:34:15.356Z,1321.22
2024-04-23T01:35:15.348Z,1325.12
2024-04-23T01:36:15.352Z,1310.92
2024-04-23T01:37:15.320Z,1313.48
2024-04-23T01:38:15.342Z,1299.52
2024-04-23T01:39:15.297Z,1299.52
2024-04-23T01:40:15.274Z,1289.55
2024-04-23T01:41:15.273Z,1280.95
2024-04-23T01:42:15.248Z,1280.95
2024-04-23T01:43:15.241Z,1277.30
2024-04-23T01:44:15.238Z,1272.47
2024-04-23T01:45:15.231Z,1271.27
2024-04-23T01:46:15.203Z,1264.10
2024-04-23T01:47:15.314Z,1262.91
2024-04-23T01:48:15.247Z,1262.91
2024-04-23T01:49:15.202Z,1260.54
2024-04-23T01:50:15.145Z,1252.33
2024-04-23T01:51:15.140Z,1246.52
2024-04-23T01:52:15.142Z,1231.69
2024-04-23T01:53:15.107Z,1236.21
2024-04-23T01:54:15.098Z,1228.31
2024-04-23T01:55:15.112Z,1216.09
2024-04-23T01:56:15.076Z,1207.36
2024-04-23T01:57:15.071Z,1201.97
2024-04-23T01:58:15.043Z,1194.49
2024-04-23T01:59:15.028Z,1186.07
2024-04-23T02:00:15.027Z,1181.90
2024-04-23T02:01:15.087Z,1167.53
2024-04-23T02:02:15.027Z,1165.51
2024-04-23T02:03:15.018Z,1156.49
2024-04-23T02:04:14.982Z,1155.50
2024-04-23T02:05:14.962Z,1146.63
2024-04-23T02:06:14.947Z,1139.83
2024-04-23T02:07:14.961Z,1134.06
2024-04-23T02:08:14.925Z,1131.20
2024-04-23T02:09:14.906Z,1116.18
2024-04-23T02:10:14.923Z,1110.65
2024-04-23T02:11:14.989Z,1106.99
2024-04-23T02:12:14.894Z,1090.83
2024-04-23T02:13:14.889Z,1097.06
2024-04-23T02:14:14.868Z,1089.95
2024-04-23T02:15:14.842Z,1093.49
2024-04-23T02:16:14.823Z,1088.19
2024-04-23T02:17:14.866Z,1079.45
2024-04-23T02:18:14.871Z,1077.72
2024-04-23T02:19:14.791Z,1069.16
2024-04-23T02:20:14.773Z,1061.56
2024-04-23T02:21:14.766Z,1059.89
2024-04-23T02:22:14.758Z,1054.90
2024-04-23T02:23:14.732Z,1046.69
2024-04-23T02:24:14.748Z,1043.44
2024-04-23T02:25:14.725Z,1042.64
2024-04-23T02:26:14.689Z,1020.48
2024-04-23T02:27:14.700Z,1020.48
2024-04-23T02:28:14.701Z,1010.52
2024-04-23T02:29:14.668Z,1000.00
2024-04-23T02:30:14.662Z,991.89
2024-04-23T02:31:14.627Z,985.35
2024-04-23T02:32:14.676Z,977.47
2024-04-23T02:33:14.684Z,976.76
2024-04-23T02:34:14.600Z,962.78
2024-04-23T02:35:14.586Z,964.16
2024-04-23T02:36:14.585Z,949.86
2024-04-23T02:37:14.566Z,948.52
2024-04-23T02:38:14.556Z,947.85
2024-04-23T02:39:14.543Z,937.93
2024-04-23T02:40:14.521Z,926.95
2024-04-23T02:41:14.534Z,926.31
2024-04-23T02:42:14.494Z,926.95
2024-04-23T02:43:14.480Z,918.72
2024-04-23T02:44:14.472Z,907.56
2024-04-23T02:45:14.454Z,899.66
2024-04-23T02:46:14.436Z,893.69
2024-04-23T02:47:14.487Z,887.79
2024-04-23T02:48:14.519Z,886.03
2024-04-23T02:49:14.408Z,879.66
2024-04-23T02:50:14.414Z,870.55
2024-04-23T02:51:14.387Z,865.51
2024-04-23T02:52:14.371Z,855.05
2024-04-23T02:53:14.419Z,856.14
2024-04-23T02:54:14.341Z,846.44
2024-04-23T02:55:14.396Z,839.58
2024-04-23T02:56:14.323Z,832.82
2024-04-23T02:57:14.321Z,822.13
2024-04-23T02:58:14.314Z,817.13
2024-04-23T02:59:14.294Z,813.18
2024-04-23T03:00:14.264Z,809.27
2024-04-23T03:01:14.254Z,804.91
2024-04-23T03:02:14.403Z,792.11
2024-04-23T03:03:14.317Z,783.80
2024-04-23T03:04:14.250Z,771.22
2024-04-23T03:05:14.233Z,769.89
2024-04-23T03:06:14.202Z,768.13
2024-04-23T03:07:14.179Z,759.46
2024-04-23T03:08:14.177Z,752.66
2024-04-23T03:09:14.165Z,750.14
2024-04-23T03:10:14.168Z,742.35
2024-04-23T03:11:14.276Z,726.30
2024-04-23T03:12:14.113Z,723.95
2024-04-23T03:13:14.108Z,712.44
2024-04-23T03:14:14.095Z,710.93
2024-04-23T03:15:14.113Z,702.75
2024-04-23T03:16:14.077Z,701.28
2024-04-23T03:17:14.063Z,694.04
2024-04-23T03:18:14.133Z,688.35
2024-04-23T03:19:14.040Z,684.84
2024-04-23T03:20:14.024Z,678.61
2024-04-23T03:21:14.037Z,680.68
2024-04-23T03:22:14.000Z,669.15
2024-04-23T03:23:13.972Z,663.86
2024-04-23T03:24:13.967Z,663.86
2024-04-23T03:25:13.968Z,656.08
2024-04-23T03:26:13.939Z,649.74
2024-04-23T03:27:13.954Z,648.48
2024-04-23T03:28:13.908Z,647.86
2024-04-23T03:29:13.912Z,642.28
2024-04-23T03:30:13.894Z,639.84
2024-04-23T03:31:13.887Z,635.00
2024-04-23T03:32:13.958Z,635.00
2024-04-23T03:33:13.932Z,632.01
2024-04-23T03:34:13.845Z,627.29
2024-04-23T03:35:13.841Z,629.05
2024-04-23T03:36:17.328Z,623.22
2024-04-23T03:37:13.829Z,619.77
2024-04-23T03:38:13.806Z,619.20
2024-04-23T03:39:13.925Z,619.77
2024-04-23T03:40:13.768Z,614.10
2024-04-23T03:41:13.772Z,611.86
2024-04-23T03:42:13.733Z,613.54
2024-04-23T03:43:13.730Z,609.64
2024-04-23T03:44:13.723Z,610.75
2024-04-23T03:45:13.715Z,606.89
2024-04-23T03:46:13.692Z,608.54
2024-04-23T03:47:13.712Z,604.71
2024-04-23T03:48:13.735Z,604.16
2024-04-23T03:49:13.683Z,598.78
2024-04-23T03:50:13.654Z,599.85
2024-04-23T03:51:13.623Z,598.78
2024-04-23T03:52:13.613Z,597.71
2024-04-23T03:53:13.593Z,596.12
2024-04-23T03:54:13.608Z,595.06
2024-04-23T03:55:13.641Z,592.96
2024-04-23T03:56:13.582Z,591.40
2024-04-23T03:57:13.575Z,589.32
2024-04-23T03:58:13.540Z,585.73
2024-04-23T03:59:13.528Z,583.69
2024-04-23T04:00:13.512Z,587.78
2024-04-23T04:01:13.554Z,584.20
2024-04-23T04:02:13.592Z,585.22
2024-04-23T04:03:13.525Z,583.18
2024-04-23T04:04:13.459Z,582.17
2024-04-23T04:05:13.466Z,580.66
2024-04-23T04:06:13.571Z,578.16
2024-04-23T04:07:13.430Z,580.16
2024-04-23T04:08:13.443Z,574.21
2024-04-23T04:09:13.454Z,580.16
2024-04-23T04:10:13.417Z,579.16
2024-04-23T04:11:13.531Z,574.70
2024-04-23T04:12:13.425Z,576.18
2024-04-23T04:13:21.300Z,577.17
2024-04-23T04:14:13.343Z,570.80
2024-04-23T04:15:13.334Z,570.31
2024-04-23T04:16:13.325Z,571.77
2024-04-23T04:17:13.412Z,569.83
2024-04-23T04:18:13.380Z,569.83
2024-04-23T04:19:13.287Z,570.31
2024-04-23T04:20:13.301Z,563.61
2024-04-23T04:21:13.263Z,561.73
2024-04-23T04:22:13.255Z,563.14
2024-04-23T04:23:13.257Z,562.20
2024-04-23T04:24:13.213Z,559.86
2024-04-23T04:25:13.207Z,558.46
2024-04-23T04:26:13.327Z,561.73
2024-04-23T04:27:13.194Z,554.77
2024-04-23T04:28:13.174Z,552.49
2024-04-23T04:29:13.165Z,552.94
2024-04-23T04:30:13.160Z,550.23
2024-04-23T04:31:13.125Z,547.98
2024-04-23T04:32:13.178Z,550.68
2024-04-23T04:33:13.186Z,549.33
2024-04-23T04:34:13.116Z,549.78
2024-04-23T04:35:13.075Z,548.88
2024-04-23T04:36:13.073Z,546.20
2024-04-23T04:37:13.050Z,545.76
2024-04-23T04:38:13.032Z,543.11
2024-04-23T04:39:13.088Z,542.67
2024-04-23T04:40:13.037Z,543.11
2024-04-23T04:41:13.015Z,540.92
2024-04-23T04:42:12.986Z,542.67
2024-04-23T04:43:12.987Z,535.75
2024-04-23T04:44:13.017Z,541.80
2024-04-23T04:45:12.948Z,536.60
2024-04-23T04:46:12.966Z,534.04
2024-04-23T04:47:12.967Z,536.60
2024-04-23T04:48:13.140Z,536.17
2024-04-23T04:49:12.965Z,532.35
2024-04-23T04:50:12.909Z,534.90
2024-04-23T04:51:12.919Z,535.75
2024-04-23T04:52:12.881Z,533.62
2024-04-23T04:53:12.863Z,536.60
2024-04-23T04:54:12.873Z,534.04
2024-04-23T04:55:12.826Z,530.67
2024-04-23T04:56:12.804Z,532.35
2024-04-23T04:57:12.819Z,529.41
2024-04-23T04:58:12.815Z,532.35
2024-04-23T04:59:12.768Z,531.51
2024-04-23T05:00:12.755Z,528.17
2024-04-23T05:01:12.777Z,529.00
2024-04-23T05:02:12.866Z,527.75
2024-04-23T05:03:12.728Z,526.92
2024-04-23T05:04:12.745Z,528.58
2024-04-23T05:05:12.692Z,526.92
2024-04-23T05:06:12.726Z,527.75
2024-04-23T05:07:12.683Z,525.28
2024-04-23T05:08:12.732Z,526.10
2024-04-23T05:09:12.644Z,525.28
2024-04-23T05:10:12.624Z,528.17
2024-04-23T05:11:12.615Z,526.51
2024-04-23T05:12:14.308Z,528.17
2024-04-23T05:13:12.603Z,522.01
2024-04-23T05:14:12.606Z,524.86
2024-04-23T05:15:12.567Z,523.23
2024-04-23T05:16:12.583Z,526.51
2024-04-23T05:17:12.614Z,524.86
2024-04-23T05:18:12.640Z,522.42
2024-04-23T05:19:12.523Z,517.99
2024-04-23T05:20:12.539Z,520.80
2024-04-23T05:21:12.505Z,522.42
2024-04-23T05:22:12.509Z,519.59
2024-04-23T05:23:12.494Z,521.60
2024-04-23T05:24:12.459Z,521.60
2024-04-23T05:25:12.489Z,517.59
2024-04-23T05:26:12.440Z,516.00
2024-04-23T05:27:12.414Z,512.84
2024-04-23T05:28:12.443Z,516.79
2024-04-23T05:29:12.412Z,508.96
2024-04-23T05:30:12.395Z,508.19
2024-04-23T05:31:12.407Z,509.73
2024-04-23T05:32:12.498Z,505.51
2024-04-23T05:33:12.402Z,504.38
2024-04-23T05:34:12.356Z,501.74
2024-04-23T05:35:12.373Z,502.49
2024-04-23T05:36:12.326Z,501.36
2024-04-23T05:37:12.327Z,498.02
2024-04-23T05:38:13.937Z,493.27
2024-04-23T05:39:12.273Z,492.54
2024-04-23T05:40:12.263Z,488.60
2024-04-23T05:41:12.263Z,487.54
2024-04-23T05:42:12.233Z,486.48
2024-04-23T05:43:12.261Z,481.25
2024-04-23T05:44:12.242Z,485.77
2024-04-23T05:45:12.232Z,476.47
2024-04-23T05:46:12.178Z,479.19
2024-04-23T05:47:12.369Z,476.14
2024-04-23T05:48:12.238Z,473.12
2024-04-23T05:49:12.154Z,470.14
2024-04-23T05:50:12.177Z,469.81
2024-04-23T05:51:12.112Z,464.29
2024-04-23T05:52:19.808Z,466.22
2024-04-23T05:53:12.122Z,462.05
2024-04-23T05:54:12.090Z,462.05
2024-04-23T05:55:12.069Z,462.05
2024-04-23T05:56:12.113Z,456.40
2024-04-23T05:57:12.066Z,456.10
2024-04-23T05:58:12.033Z,457.65
2024-04-23T05:59:12.081Z,456.40
2024-04-23T06:00:12.002Z,453.02
2024-04-23T06:01:12.033Z,452.41
2024-04-23T06:02:11.992Z,453.63
2024-04-23T06:03:11.980Z,454.55
2024-04-23T06:04:12.010Z,453.02
2024-04-23T06:05:11.985Z,450.29
2024-04-23T06:06:11.946Z,449.38
2024-04-23T06:07:11.919Z,450.29
2024-04-23T06:08:12.016Z,451.80
2024-04-23T06:09:11.891Z,451.80
2024-04-23T06:10:11.907Z,447.89
2024-04-23T06:11:12.119Z,449.68
2024-04-23T06:12:11.847Z,450.29
2024-04-23T06:13:11.843Z,449.98
2024-04-23T06:14:11.852Z,450.29
2024-04-23T06:15:11.843Z,449.68
2024-04-23T06:16:11.825Z,447.89
2024-04-23T06:17:11.797Z,445.51
2024-04-23T06:18:11.828Z,442.87
2024-04-23T06:19:11.785Z,450.29
2024-04-23T06:20:11.764Z,442.28
2024-04-23T06:21:11.796Z,443.74
2024-04-23T06:22:11.817Z,440.83
2024-04-23T06:23:11.807Z,444.04
2024-04-23T06:24:11.708Z,438.82
2024-04-23T06:25:11.754Z,438.24
2024-04-23T06:26:11.708Z,441.12
2024-04-23T06:27:11.687Z,439.68
2024-04-23T06:28:11.660Z,434.84
2024-04-23T06:29:11.654Z,439.68
2024-04-23T06:30:11.638Z,437.96
2024-04-23T06:31:11.626Z,439.68
2024-04-23T06:32:11.639Z,434.00
2024-04-23T06:33:11.736Z,437.10
2024-04-23T06:34:11.575Z,435.69
2024-04-23T06:35:11.604Z,435.69
2024-04-23T06:36:11.554Z,437.39
2024-04-23T06:37:11.533Z,436.54
2024-04-23T06:38:11.600Z,435.12
2024-04-23T06:39:11.513Z,435.40
2024-04-23T06:40:11.505Z,436.82
2024-04-23T06:41:11.494Z,435.12
2024-04-23T06:42:11.471Z,432.88
2024-04-23T06:43:14.193Z,432.60
2024-04-23T06:44:11.490Z,432.04
2024-04-23T06:45:11.421Z,431.21
2024-04-23T06:46:11.432Z,432.32
2024-04-23T06:47:11.420Z,432.04
2024-04-23T06:48:11.459Z,433.72
2024-04-23T06:49:11.390Z,429.01
2024-04-23T06:50:11.437Z,430.66
2024-04-23T06:51:11.376Z,432.32
2024-04-23T06:52:11.351Z,426.83
2024-04-23T06:53:11.380Z,429.83
2024-04-23T06:54:11.354Z,431.21
2024-04-23T06:55:11.364Z,425.21
2024-04-23T06:56:11.362Z,427.64
2024-04-23T06:57:11.309Z,432.88
2024-04-23T06:58:11.274Z,431.77
2024-04-23T06:59:11.274Z,429.56
2024-04-23T07:00:11.250Z,431.77
2024-04-23T07:01:11.304Z,436.82
2024-04-23T07:02:11.282Z,437.67
2024-04-23T07:03:11.198Z,435.40
2024-04-23T07:04:11.196Z,434.00
2024-04-23T07:05:11.335Z,442.87
2024-04-23T07:06:11.166Z,441.99
2024-04-23T07:07:11.185Z,444.33
2024-04-23T07:08:11.148Z,445.51
2024-04-23T07:09:11.144Z,445.51
2024-04-23T07:10:11.129Z,449.08
2024-04-23T07:11:11.242Z,452.41
2024-04-23T07:12:11.129Z,451.80
2024-04-23T07:13:11.066Z,452.71
2024-04-23T07:14:11.111Z,458.27
2024-04-23T07:15:11.058Z,456.40
2024-04-23T07:16:11.058Z,459.21
2024-04-23T07:17:11.147Z,465.25
2024-04-23T07:18:11.127Z,462.05
2024-04-23T07:19:11.055Z,468.17
2024-04-23T07:20:11.022Z,472.79
2024-04-23T07:21:11.029Z,475.12
2024-04-23T07:22:10.971Z,479.19
2024-04-23T07:23:11.045Z,482.29
2024-04-23T07:24:10.993Z,485.42
2024-04-23T07:25:10.928Z,491.10
2024-04-23T07:26:10.960Z,492.90
2024-04-23T07:27:10.915Z,492.54
2024-04-23T07:28:10.900Z,491.10
2024-04-23T07:29:10.947Z,494.72
2024-04-23T07:30:10.913Z,499.87
2024-04-23T07:31:10.840Z,501.74
2024-04-23T07:32:11.064Z,509.35
2024-04-23T07:33:10.920Z,514.42
2024-04-23T07:34:10.810Z,519.19
2024-04-23T07:35:10.883Z,524.46
2024-04-23T07:36:10.837Z,529.83
2024-04-23T07:37:10.798Z,535.75
2024-04-23T07:38:10.894Z,543.99
2024-04-23T07:39:10.746Z,546.20
2024-04-23T07:40:10.727Z,545.32
2024-04-23T07:41:10.758Z,558.92
2024-04-23T07:42:10.759Z,557.53
2024-04-23T07:43:10.766Z,558.00
2024-04-23T07:44:10.819Z,563.61
2024-04-23T07:45:10.658Z,571.77
2024-04-23T07:46:10.653Z,580.16
2024-04-23T07:47:10.766Z,591.40
2024-04-23T07:48:10.750Z,596.12
2024-04-23T07:49:10.610Z,590.88
2024-04-23T07:50:10.696Z,598.24
2024-04-23T07:51:10.614Z,599.31
2024-04-23T07:52:10.583Z,600.92
2024-04-23T07:53:10.619Z,602.00
2024-04-23T07:54:10.548Z,616.36
2024-04-23T07:55:10.536Z,615.79
2024-04-23T07:56:10.606Z,620.91
2024-04-23T07:57:10.510Z,626.12
2024-04-23T07:58:10.514Z,623.22
2024-04-23T07:59:10.567Z,624.38
2024-04-23T08:00:10.458Z,631.42
2024-04-23T08:01:10.487Z,628.46
2024-04-23T08:02:10.529Z,632.01
2024-04-23T08:03:11.528Z,630.82
2024-04-23T08:04:10.529Z,635.60
2024-04-23T08:05:10.452Z,639.23
2024-04-23T08:06:10.394Z,647.86
2024-04-23T08:07:10.381Z,656.72
2024-04-23T08:08:10.389Z,662.55
2024-04-23T08:09:10.345Z,673.85
2024-04-23T08:10:10.383Z,677.25
2024-04-23T08:11:10.557Z,682.06
2024-04-23T08:12:10.473Z,694.04
2024-04-23T08:13:10.322Z,701.28
2024-04-23T08:14:10.338Z,707.19
2024-04-23T08:15:10.281Z,713.95
2024-04-23T08:16:10.285Z,735.85
2024-04-23T08:17:10.425Z,748.05
2024-04-23T08:18:10.418Z,753.50
2024-04-23T08:19:10.252Z,764.64
2024-04-23T08:20:10.214Z,786.55
2024-04-23T08:21:10.235Z,803.46
2024-04-23T08:22:10.185Z,822.63
2024-04-23T08:23:10.374Z,843.26
2024-04-23T08:24:10.153Z,855.60
2024-04-23T08:25:10.152Z,863.29
2024-04-23T08:26:10.381Z,865.51
2024-04-23T08:27:10.160Z,889.55
2024-04-23T08:28:10.102Z,894.88
2024-04-23T08:29:10.185Z,904.51
2024-04-23T08:30:10.084Z,906.33
2024-04-23T08:31:10.098Z,914.34
2024-04-23T08:32:10.068Z,921.23
2024-04-23T08:33:10.089Z,928.87
2024-04-23T08:34:10.044Z,939.24
2024-04-23T08:35:10.065Z,950.53
2024-04-23T08:36:10.002Z,959.34
2024-04-23T08:37:09.989Z,971.82
2024-04-23T08:38:10.025Z,976.76
2024-04-23T08:39:09.966Z,993.35
2024-04-23T08:40:09.958Z,1004.48
2024-04-23T08:41:09.972Z,1000.00
2024-04-23T08:42:09.931Z,1002.23
2024-04-23T08:43:09.910Z,1011.28
2024-04-23T08:44:10.005Z,1031.44
2024-04-23T08:45:09.906Z,1039.41
2024-04-23T08:46:09.891Z,1057.39
2024-04-23T08:47:09.932Z,1072.57
2024-04-23T08:48:09.949Z,1084.68
2024-04-23T08:49:09.834Z,1106.99
2024-04-23T08:50:09.870Z,1126.46
2024-04-23T08:51:09.809Z,1137.90
2024-04-23T08:52:09.794Z,1160.48
2024-04-23T08:53:09.908Z,1158.48
2024-04-23T08:54:09.787Z,1166.52
2024-04-23T08:55:09.767Z,1179.82
2024-04-23T08:56:09.803Z,1185.02
2024-04-23T08:57:09.754Z,1198.75
2024-04-23T08:58:09.736Z,1206.28
2024-04-23T08:59:09.760Z,1216.09
2024-04-23T09:00:09.693Z,1229.43
2024-04-23T09:01:09.746Z,1232.81
2024-04-23T09:02:09.729Z,1241.92
2024-04-23T09:03:09.680Z,1254.66
2024-04-23T09:04:09.765Z,1261.73
2024-04-23T09:05:09.645Z,1245.37
2024-04-23T09:06:09.616Z,1247.68
2024-04-23T09:07:15.004Z,1247.68
2024-04-23T09:08:09.726Z,1253.49
2024-04-23T09:09:09.576Z,1253.49
2024-04-23T09:10:09.612Z,1260.54
2024-04-23T09:11:09.584Z,1259.36
2024-04-23T09:12:09.560Z,1265.29
2024-04-23T09:13:09.564Z,1270.07
2024-04-23T09:14:09.589Z,1267.67
2024-04-23T09:15:09.516Z,1282.17
2024-04-23T09:16:09.501Z,1277.30
2024-04-23T09:17:09.561Z,1283.40
2024-04-23T09:18:09.598Z,1288.31
2024-04-23T09:19:09.452Z,1290.79
2024-04-23T09:20:09.488Z,1304.56
2024-04-23T09:21:09.436Z,1316.05
2024-04-23T09:22:09.812Z,1325.12
2024-04-23T09:23:09.427Z,1329.05
2024-04-23T09:24:09.471Z,1345.00
2024-04-23T09:25:09.447Z,1343.66
2024-04-23T09:26:09.717Z,1347.69
2024-04-23T09:27:10.107Z,1347.69
2024-04-23T09:28:09.378Z,1353.12
2024-04-23T09:29:09.428Z,1382.32
2024-04-23T09:30:09.401Z,1396.68
2024-04-23T09:31:09.286Z,1401.04
2024-04-23T09:32:09.529Z,1424.79
2024-04-23T09:33:09.436Z,1432.37
2024-04-23T09:34:09.272Z,1450.92
2024-04-23T09:35:09.308Z,1458.79
2024-04-23T09:36:09.309Z,1468.34
2024-04-23T09:37:09.557Z,1487.83
2024-04-23T09:38:09.638Z,1507.85
2024-04-23T09:39:09.185Z,1498.61
2024-04-23T09:40:09.172Z,1514.64
2024-04-23T09:41:09.295Z,1519.77
2024-04-23T09:42:09.196Z,1549.54
2024-04-23T09:43:09.144Z,1563.04
2024-04-23T09:44:09.199Z,1592.66
2024-04-23T09:45:09.107Z,1605.01
2024-04-23T09:46:10.964Z,1628.33
2024-04-23T09:47:09.231Z,1645.26
2024-04-23T09:48:09.295Z,1650.31
2024-04-23T09:49:09.051Z,1672.89
2024-04-23T09:50:09.139Z,1700.38
2024-04-23T09:51:09.036Z,1733.25
2024-04-23T09:52:09.029Z,1772.07
2024-04-23T09:53:09.194Z,1809.01
2024-04-23T09:54:09.012Z,1834.92
2024-04-23T09:55:09.002Z,1881.12
2024-04-23T09:56:09.052Z,1903.75
2024-04-23T09:57:08.946Z,1935.25
2024-04-23T09:58:08.962Z,1956.36
2024-04-23T09:59:08.965Z,1957.79
2024-04-23T10:00:08.917Z,1963.50
2024-04-23T10:01:08.970Z,1994.07
2024-04-23T10:02:08.912Z,1986.71
2024-04-23T10:03:10.013Z,1998.51
2024-04-23T10:04:08.982Z,1995.55
2024-04-23T10:05:09.410Z,2000.00
2024-04-23T10:06:08.844Z,2013.47
2024-04-23T10:07:08.840Z,2014.98
2024-04-23T10:08:08.874Z,2004.47
2024-04-23T10:09:08.796Z,2028.66
2024-04-23T10:10:08.842Z,2037.88
2024-04-23T10:11:08.807Z,2019.52
2024-04-23T10:12:08.762Z,2025.60
2024-04-23T10:13:08.752Z,2019.52
2024-04-23T10:14:08.797Z,2004.47
2024-04-23T10:15:08.735Z,1992.59
2024-04-23T10:16:08.712Z,1985.24
2024-04-23T10:17:08.811Z,1967.81
2024-04-23T10:18:08.792Z,1946.45
2024-04-23T10:19:08.674Z,1921.43
2024-04-23T10:20:09.018Z,1920.06
2024-04-23T10:21:08.649Z,1911.87
2024-04-23T10:22:08.643Z,1918.69
2024-04-23T10:23:08.694Z,1905.10
2024-04-23T10:24:08.614Z,1899.72
2024-04-23T10:25:08.601Z,1878.49
2024-04-23T10:26:08.636Z,1875.87
2024-04-23T10:27:08.587Z,1859.02
2024-04-23T10:28:08.571Z,1870.65
2024-04-23T10:29:08.601Z,1870.65
2024-04-23T10:30:08.544Z,1891.70
2024-04-23T10:31:08.509Z,1878.49
2024-04-23T10:32:08.617Z,1921.43
2024-04-23T10:33:08.554Z,1924.18
2024-04-23T10:34:08.476Z,1954.94
2024-04-23T10:35:08.472Z,1946.45
2024-04-23T10:36:08.462Z,1989.65
2024-04-23T10:37:08.431Z,1985.24
2024-04-23T10:38:08.564Z,1986.71
2024-04-23T10:39:08.411Z,1998.51
2024-04-23T10:40:08.450Z,1986.71
2024-04-23T10:41:08.488Z,1980.85
2024-04-23T10:42:08.368Z,1983.78
2024-04-23T10:43:08.376Z,1985.24
2024-04-23T10:44:08.400Z,2025.60
2024-04-23T10:45:08.393Z,2037.88
2024-04-23T10:46:08.316Z,2064.47
2024-04-23T10:47:08.385Z,2074.02
2024-04-23T10:48:08.332Z,2082.04
2024-04-23T10:49:08.311Z,2129.85
2024-04-23T10:50:08.354Z,2128.16
2024-04-23T10:51:08.266Z,2158.91
2024-04-23T10:52:08.237Z,2181.67
2024-04-23T10:53:08.361Z,2179.90
2024-04-23T10:54:11.451Z,2176.38
2024-04-23T10:55:08.227Z,2199.51
2024-04-23T10:56:08.209Z,2194.13
2024-04-23T10:57:08.173Z,2197.71
2024-04-23T10:58:08.164Z,2195.92
2024-04-23T10:59:08.204Z,2192.34
2024-04-23T11:00:08.153Z,2171.10
2024-04-23T11:01:08.282Z,2181.67
2024-04-23T11:02:08.255Z,2186.99
2024-04-23T11:03:08.233Z,2178.14
2024-04-23T11:04:08.101Z,2217.64
2024-04-23T11:05:08.240Z,2226.82
2024-04-23T11:06:11.330Z,2241.67
2024-04-23T11:07:08.069Z,2283.53
2024-04-23T11:08:08.093Z,2266.22
2024-04-23T11:09:08.012Z,2268.13
2024-04-23T11:10:08.025Z,2291.31
2024-04-23T11:11:08.116Z,2312.98
2024-04-23T11:12:10.566Z,2337.10
2024-04-23T11:13:07.964Z,2384.75
2024-04-23T11:14:08.082Z,2397.50
2024-04-23T11:15:07.953Z,2436.59
2024-04-23T11:16:07.942Z,2449.91
2024-04-23T11:17:08.017Z,2449.91
2024-04-23T11:18:11.173Z,2490.74
2024-04-23T11:19:08.013Z,2530.57
2024-04-23T11:20:07.984Z,2506.99
2024-04-23T11:21:07.873Z,2516.37
2024-04-23T11:22:07.859Z,2514.02
2024-04-23T11:23:07.885Z,2530.57
2024-04-23T11:24:10.026Z,2493.05
2024-04-23T11:25:07.813Z,2514.02
2024-04-23T11:26:07.998Z,2516.37
2024-04-23T11:27:07.825Z,2514.02
2024-04-23T11:28:07.933Z,2490.74
2024-04-23T11:29:07.889Z,2532.96
2024-04-23T11:30:10.421Z,2502.32
2024-04-23T11:31:07.728Z,2521.09
2024-04-23T11:32:07.780Z,2544.94
2024-04-23T11:33:07.876Z,2518.73
2024-04-23T11:34:07.696Z,2542.53
2024-04-23T11:35:08.068Z,2557.03
2024-04-23T11:36:10.513Z,2537.74
2024-04-23T11:37:07.655Z,2532.96
2024-04-23T11:38:07.690Z,2554.60
2024-04-23T11:39:07.674Z,2557.03
2024-04-23T11:40:07.616Z,2564.35
2024-04-23T11:41:07.632Z,2521.09
2024-04-23T11:42:09.050Z,2532.96
2024-04-23T11:43:07.811Z,2535.34
2024-04-23T11:44:07.797Z,2504.66
2024-04-23T11:45:07.560Z,2537.74
2024-04-23T11:46:07.532Z,2514.02
2024-04-23T11:47:07.582Z,2490.74
2024-04-23T11:48:07.676Z,2490.74
2024-04-23T11:49:07.540Z,2479.26
2024-04-23T11:50:08.132Z,2472.43
2024-04-23T11:51:07.460Z,2467.89
2024-04-23T11:52:08.621Z,2452.14
2024-04-23T11:53:07.527Z,2445.45
2024-04-23T11:54:07.466Z,2445.45
2024-04-23T11:55:07.482Z,2441.02
2024-04-23T11:56:07.509Z,2434.39
2024-04-23T11:57:07.389Z,2432.19
2024-04-23T11:58:07.400Z,2423.42
2024-04-23T11:59:07.397Z,2397.50
2024-04-23T12:00:07.347Z,2419.06
2024-04-23T12:01:07.450Z,2388.99
2024-04-23T12:02:07.402Z,2399.64
2024-04-23T12:03:07.300Z,2386.87
2024-04-23T12:04:07.334Z,2365.88
2024-04-23T12:05:07.445Z,2363.80
2024-04-23T12:06:07.561Z,2353.46
2024-04-23T12:07:07.285Z,2347.29
2024-04-23T12:08:07.451Z,2339.13
2024-04-23T12:09:07.239Z,2312.98
2024-04-23T12:10:07.229Z,2331.02
2024-04-23T12:11:07.337Z,2335.07
2024-04-23T12:12:07.201Z,2341.17
2024-04-23T12:13:07.229Z,2333.04
2024-04-23T12:14:07.276Z,2335.07
2024-04-23T12:15:07.436Z,2318.97
2024-04-23T12:16:07.145Z,2318.97
2024-04-23T12:17:07.203Z,2307.03